createdAt,value
2023-01-06T00:02:23.763Z,7.46
2023-01-06T00:05:23.667Z,7.46
2023-01-06T00:08:23.668Z,7.51
2023-01-06T00:11:23.663Z,7.51
2023-01-06T00:14:23.662Z,7.51
2023-01-06T00:17:23.786Z,7.51
2023-01-06T00:20:23.709Z,7.51
2023-01-06T00:23:23.672Z,7.46
2023-01-06T00:26:23.679Z,7.51
2023-01-06T00:29:23.670Z,7.51
2023-01-06T00:32:23.676Z,7.51
2023-01-06T00:35:23.794Z,7.51
2023-01-06T00:38:23.681Z,7.51
2023-01-06T00:41:23.684Z,7.51
2023-01-06T00:44:23.696Z,7.55
2023-01-06T00:47:23.689Z,7.51
2023-01-06T00:50:23.721Z,7.56
2023-01-06T00:53:23.833Z,7.55
2023-01-06T00:56:23.695Z,7.56
2023-01-06T00:59:23.700Z,7.6
2023-01-06T01:02:24.031Z,7.6
2023-01-06T01:05:23.712Z,7.6
2023-01-06T01:08:23.707Z,7.65
2023-01-06T01:11:23.840Z,7.65
2023-01-06T01:14:23.719Z,7.65
2023-01-06T01:17:23.722Z,7.7
2023-01-06T01:20:23.734Z,7.7
2023-01-06T01:23:23.722Z,7.69
2023-01-06T01:26:23.730Z,7.74
2023-01-06T01:29:23.755Z,7.74
2023-01-06T01:32:23.735Z,7.74
2023-01-06T01:35:23.747Z,7.74
2023-01-06T01:38:23.733Z,7.73
2023-01-06T01:41:23.751Z,7.73
2023-01-06T01:44:23.767Z,7.78
2023-01-06T01:47:23.870Z,7.78
2023-01-06T01:50:23.753Z,7.78
2023-01-06T01:53:23.773Z,7.78
2023-01-06T01:56:23.773Z,7.79
2023-01-06T01:59:23.768Z,7.83
2023-01-06T02:02:23.932Z,7.84
2023-01-06T02:05:23.898Z,7.84
2023-01-06T02:08:23.791Z,7.84
2023-01-06T02:11:23.797Z,7.84
2023-01-06T02:14:23.799Z,7.84
2023-01-06T02:17:23.800Z,7.84
2023-01-06T02:20:23.808Z,7.85
2023-01-06T02:23:23.978Z,7.85
2023-01-06T02:26:23.819Z,7.85
2023-01-06T02:29:23.818Z,7.9
2023-01-06T02:32:23.846Z,7.9
2023-01-06T02:35:23.848Z,7.9
2023-01-06T02:38:23.839Z,7.9
2023-01-06T02:41:23.973Z,7.9
2023-01-06T02:44:23.851Z,7.89
2023-01-06T02:47:23.861Z,7.9
2023-01-06T02:50:23.861Z,7.89
2023-01-06T02:53:23.895Z,7.94
2023-01-06T02:56:23.882Z,7.94
2023-01-06T02:59:24.001Z,7.94
2023-01-06T03:02:23.984Z,7.94
2023-01-06T03:05:23.892Z,7.93
2023-01-06T03:08:23.905Z,7.93
2023-01-06T03:11:23.906Z,7.92
2023-01-06T03:14:23.910Z,7.92
2023-01-06T03:17:24.032Z,7.92
2023-01-06T03:20:23.928Z,7.86
2023-01-06T03:23:23.925Z,7.86
2023-01-06T03:26:23.932Z,7.86
2023-01-06T03:29:23.941Z,7.86
2023-01-06T03:32:23.988Z,7.86
2023-01-06T03:35:24.063Z,7.86
2023-01-06T03:38:23.954Z,7.86
2023-01-06T03:41:23.951Z,7.8
2023-01-06T03:44:23.962Z,7.85
2023-01-06T03:47:23.964Z,7.86
2023-01-06T03:50:23.970Z,7.92
2023-01-06T03:53:24.101Z,7.92
2023-01-06T03:56:23.990Z,7.92
2023-01-06T03:59:23.986Z,7.97
2023-01-06T04:02:24.001Z,7.97
2023-01-06T04:05:24.000Z,8.03
2023-01-06T04:08:24.006Z,8.03
2023-01-06T04:11:24.144Z,8.03
2023-01-06T04:14:24.015Z,8.08
2023-01-06T04:17:24.016Z,8.08
2023-01-06T04:20:24.017Z,8.08
2023-01-06T04:23:24.021Z,8.07
2023-01-06T04:26:24.035Z,8.07
2023-01-06T04:29:24.153Z,8.07
2023-01-06T04:32:24.029Z,8.12
2023-01-06T04:35:24.034Z,8.07
2023-01-06T04:38:24.029Z,8.12
2023-01-06T04:41:24.037Z,8.12
2023-01-06T04:44:24.038Z,8.11
2023-01-06T04:47:24.159Z,8.11
2023-01-06T04:50:24.039Z,8.17
2023-01-06T04:53:24.047Z,8.16
2023-01-06T04:56:25.968Z,8.2
2023-01-06T04:59:24.058Z,8.19
2023-01-06T05:02:24.069Z,8.24
2023-01-06T05:05:24.206Z,8.23
2023-01-06T05:08:24.079Z,8.22
2023-01-06T05:11:24.114Z,8.26
2023-01-06T05:14:24.104Z,8.26
2023-01-06T05:17:24.125Z,8.23
2023-01-06T05:20:24.116Z,8.23
2023-01-06T05:23:24.249Z,8.21
2023-01-06T05:26:24.159Z,8.27
2023-01-06T05:29:24.142Z,8.25
2023-01-06T05:32:24.147Z,8.24
2023-01-06T05:35:24.148Z,8.23
2023-01-06T05:38:24.157Z,8.23
2023-01-06T05:41:24.291Z,8.22
2023-01-06T05:44:24.171Z,8.27
2023-01-06T05:47:24.179Z,8.3
2023-01-06T05:50:24.185Z,8.29
2023-01-06T05:53:24.188Z,8.28
2023-01-06T05:56:24.188Z,8.28
2023-01-06T05:59:24.310Z,8.3
2023-01-06T06:02:24.270Z,8.29
2023-01-06T06:05:24.220Z,8.25
2023-01-06T06:08:24.227Z,8.29
2023-01-06T06:11:24.238Z,8.26
2023-01-06T06:14:24.227Z,8.26
2023-01-06T06:17:24.358Z,8.25
2023-01-06T06:20:24.244Z,8.28
2023-01-06T06:23:24.248Z,8.22
2023-01-06T06:26:24.263Z,8.26
2023-01-06T06:29:24.247Z,8.23
2023-01-06T06:32:24.252Z,8.2
2023-01-06T06:35:24.374Z,8.18
2023-01-06T06:38:24.265Z,8.2
2023-01-06T06:41:24.285Z,8.19
2023-01-06T06:44:24.270Z,8.16
2023-01-06T06:47:24.279Z,8.11
2023-01-06T06:50:24.282Z,8.17
2023-01-06T06:53:24.410Z,8.14
2023-01-06T06:56:24.289Z,8.1
2023-01-06T06:59:24.294Z,8.08
2023-01-06T07:02:24.352Z,8.07
2023-01-06T07:05:24.310Z,8.07
2023-01-06T07:08:24.312Z,8.07
2023-01-06T07:11:24.440Z,8.06
2023-01-06T07:14:24.325Z,8.04
2023-01-06T07:17:24.326Z,8.08
2023-01-06T07:20:24.330Z,8.03
2023-01-06T07:23:24.354Z,8.05
2023-01-06T07:26:24.351Z,8.03
2023-01-06T07:29:24.462Z,8.03
2023-01-06T07:32:24.350Z,8.03
2023-01-06T07:35:24.360Z,8.02
2023-01-06T07:38:24.367Z,8.02
2023-01-06T07:41:24.360Z,8.02
2023-01-06T07:44:24.366Z,8.02
2023-01-06T07:47:24.498Z,8.01
2023-01-06T07:50:26.306Z,7.99
2023-01-06T07:53:24.410Z,8
2023-01-06T07:56:24.378Z,7.99
2023-01-06T07:59:24.387Z,7.98
2023-01-06T08:02:24.458Z,7.97
2023-01-06T08:05:24.421Z,7.97
2023-01-06T08:08:24.406Z,7.94
2023-01-06T08:11:24.410Z,7.98
2023-01-06T08:14:24.403Z,7.97
2023-01-06T08:17:24.402Z,7.97
2023-01-06T08:20:24.404Z,7.96
2023-01-06T08:23:24.528Z,7.95
2023-01-06T08:26:24.503Z,7.94
2023-01-06T08:29:24.423Z,7.95
2023-01-06T08:32:24.426Z,7.97
2023-01-06T08:35:24.442Z,7.94
2023-01-06T08:38:24.438Z,7.9
2023-01-06T08:41:24.556Z,7.89
2023-01-06T08:44:24.448Z,7.91
2023-01-06T08:47:24.449Z,7.92
2023-01-06T08:50:26.482Z,7.87
2023-01-06T08:53:24.457Z,7.91
2023-01-06T08:56:24.461Z,7.87
2023-01-06T08:59:24.578Z,7.91
2023-01-06T09:02:24.551Z,7.84
2023-01-06T09:05:24.479Z,7.82
2023-01-06T09:08:24.484Z,7.77
2023-01-06T09:11:24.488Z,7.78
2023-01-06T09:14:24.490Z,7.75
2023-01-06T09:17:24.621Z,7.81
2023-01-06T09:20:24.504Z,7.76
2023-01-06T09:23:24.513Z,7.73
2023-01-06T09:26:24.505Z,7.79
2023-01-06T09:29:24.505Z,7.77
2023-01-06T09:32:24.507Z,7.8
2023-01-06T09:35:24.650Z,7.81
2023-01-06T09:38:24.544Z,7.85
2023-01-06T09:41:24.527Z,7.88
2023-01-06T09:44:24.802Z,7.8
2023-01-06T09:47:24.543Z,7.86
2023-01-06T09:50:24.547Z,7.82
2023-01-06T09:53:24.671Z,7.87
2023-01-06T09:56:24.575Z,7.85
2023-01-06T09:59:24.558Z,7.89
2023-01-06T10:02:24.633Z,7.9
2023-01-06T10:05:24.569Z,7.89
2023-01-06T10:08:24.575Z,7.91
2023-01-06T10:11:24.695Z,7.91
2023-01-06T10:14:24.585Z,7.97
2023-01-06T10:17:24.598Z,8.03
2023-01-06T10:20:24.589Z,8.03
2023-01-06T10:23:24.610Z,8.07
2023-01-06T10:26:24.601Z,8.1
2023-01-06T10:29:24.727Z,8.08
2023-01-06T10:32:24.612Z,8.14
2023-01-06T10:35:24.616Z,8.11
2023-01-06T10:38:24.633Z,8.09
2023-01-06T10:41:24.619Z,8.07
2023-01-06T10:44:24.628Z,8.08
2023-01-06T10:47:24.760Z,8.13
2023-01-06T10:50:24.639Z,8.12
2023-01-06T10:53:24.705Z,8.16
2023-01-06T10:56:24.662Z,8.18
2023-01-06T10:59:24.652Z,8.21
2023-01-06T11:02:24.819Z,8.22
2023-01-06T11:05:24.776Z,8.22
2023-01-06T11:08:24.667Z,8.25
2023-01-06T11:11:29.054Z,8.23
2023-01-06T11:14:24.677Z,8.29
2023-01-06T11:17:24.681Z,8.27
2023-01-06T11:20:24.708Z,8.36
2023-01-06T11:23:24.815Z,8.37
2023-01-06T11:26:24.693Z,8.37
2023-01-06T11:29:24.698Z,8.4
2023-01-06T11:32:24.723Z,8.37
2023-01-06T11:35:24.714Z,8.31
2023-01-06T11:38:24.716Z,8.31
2023-01-06T11:41:24.844Z,8.32
2023-01-06T11:44:24.717Z,8.29
2023-01-06T11:47:24.724Z,8.33
2023-01-06T11:50:24.728Z,8.36
2023-01-06T11:53:24.729Z,8.35
2023-01-06T11:56:24.735Z,8.38
2023-01-06T11:59:24.865Z,8.38
2023-01-06T12:02:24.830Z,8.4
2023-01-06T12:05:24.776Z,8.48
2023-01-06T12:08:24.769Z,8.5
2023-01-06T12:11:24.763Z,8.46
2023-01-06T12:14:29.390Z,8.55
2023-01-06T12:17:25.188Z,8.55
2023-01-06T12:20:24.780Z,8.57
2023-01-06T12:23:24.788Z,8.57
2023-01-06T12:26:24.835Z,8.58
2023-01-06T12:29:24.786Z,8.58
2023-01-06T12:32:24.794Z,8.57
2023-01-06T12:35:24.913Z,8.62
2023-01-06T12:38:24.801Z,8.57
2023-01-06T12:41:24.803Z,8.55
2023-01-06T12:44:24.812Z,8.58
2023-01-06T12:47:24.812Z,8.57
2023-01-06T12:50:24.817Z,8.56
2023-01-06T12:53:24.941Z,8.61
2023-01-06T12:56:24.823Z,8.57
2023-01-06T12:59:24.834Z,8.56
2023-01-06T13:02:24.833Z,8.56
2023-01-06T13:05:24.840Z,8.61
2023-01-06T13:08:24.840Z,8.6
2023-01-06T13:11:24.958Z,8.6
2023-01-06T13:14:24.842Z,8.65
2023-01-06T13:17:24.863Z,8.57
2023-01-06T13:20:24.861Z,8.53
2023-01-06T13:23:26.344Z,8.45
2023-01-06T13:26:24.869Z,8.43
2023-01-06T13:29:24.993Z,8.35
2023-01-06T13:32:24.875Z,8.34
2023-01-06T13:35:24.884Z,8.29
2023-01-06T13:38:24.883Z,8.19
2023-01-06T13:41:24.890Z,8.24
2023-01-06T13:44:24.899Z,8.14
2023-01-06T13:47:25.021Z,8.11
2023-01-06T13:50:24.903Z,8.14
2023-01-06T13:53:24.903Z,8.08
2023-01-06T13:56:24.914Z,8.02
2023-01-06T13:59:24.935Z,7.98
2023-01-06T14:02:25.050Z,8.02
2023-01-06T14:05:25.047Z,7.98
2023-01-06T14:08:24.933Z,7.99
2023-01-06T14:11:24.937Z,8.04
2023-01-06T14:14:24.956Z,8.02
2023-01-06T14:17:24.947Z,8.02
2023-01-06T14:20:24.981Z,7.95
2023-01-06T14:23:25.093Z,7.95
2023-01-06T14:26:24.953Z,7.94
2023-01-06T14:29:24.958Z,7.87
2023-01-06T14:32:24.958Z,7.82
2023-01-06T14:35:24.962Z,7.81
2023-01-06T14:38:24.966Z,7.76
2023-01-06T14:41:25.103Z,7.68
2023-01-06T14:44:24.972Z,7.65
2023-01-06T14:47:24.976Z,7.62
2023-01-06T14:50:29.784Z,7.55
2023-01-06T14:53:25.047Z,7.51
2023-01-06T14:56:24.989Z,7.5
2023-01-06T14:59:25.137Z,7.45
2023-01-06T15:02:25.224Z,7.49
2023-01-06T15:05:25.012Z,7.48
2023-01-06T15:08:25.011Z,7.48
2023-01-06T15:11:25.056Z,7.44
2023-01-06T15:14:25.031Z,7.4
2023-01-06T15:17:25.151Z,7.36
2023-01-06T15:20:25.029Z,7.34
2023-01-06T15:23:25.042Z,7.32
2023-01-06T15:26:25.049Z,7.29
2023-01-06T15:29:25.043Z,7.23
2023-01-06T15:32:25.067Z,7.25
2023-01-06T15:35:25.180Z,7.27
2023-01-06T15:38:25.090Z,7.24
2023-01-06T15:41:25.060Z,7.23
2023-01-06T15:44:25.070Z,7.21
2023-01-06T15:47:25.075Z,7.19
2023-01-06T15:50:25.072Z,7.17
2023-01-06T15:53:25.214Z,7.16
2023-01-06T15:56:25.095Z,7.16
2023-01-06T15:59:25.090Z,7.16
2023-01-06T16:02:25.189Z,7.13
2023-01-06T16:05:25.099Z,7.12
2023-01-06T16:08:25.111Z,7.15
2023-01-06T16:11:25.219Z,7.14
2023-01-06T16:14:25.110Z,7.15
2023-01-06T16:17:25.113Z,7.17
2023-01-06T16:20:25.126Z,7.1
2023-01-06T16:23:25.133Z,7.13
2023-01-06T16:26:25.130Z,7.15
2023-01-06T16:29:25.161Z,7.13
2023-01-06T16:32:25.137Z,7.15
2023-01-06T16:35:25.143Z,7.12
2023-01-06T16:38:25.158Z,7.13
2023-01-06T16:41:25.159Z,7.11
2023-01-06T16:44:25.197Z,7.15
2023-01-06T16:47:25.358Z,7.17
2023-01-06T16:50:25.197Z,7.18
2023-01-06T16:53:25.173Z,7.24
2023-01-06T16:56:25.168Z,7.25
2023-01-06T16:59:25.176Z,7.3
2023-01-06T17:02:25.219Z,7.33
2023-01-06T17:05:25.304Z,7.37
2023-01-06T17:08:25.206Z,7.41
2023-01-06T17:11:25.188Z,7.4
2023-01-06T17:14:25.183Z,7.44
2023-01-06T17:17:25.190Z,7.43
2023-01-06T17:20:25.205Z,7.42
2023-01-06T17:23:25.340Z,7.45
2023-01-06T17:26:25.211Z,7.44
2023-01-06T17:29:25.204Z,7.45
2023-01-06T17:32:25.212Z,7.42
2023-01-06T17:35:25.211Z,7.44
2023-01-06T17:38:25.225Z,7.42
2023-01-06T17:41:25.343Z,7.44
2023-01-06T17:44:25.224Z,7.43
2023-01-06T17:47:25.235Z,7.5
2023-01-06T17:50:25.233Z,7.44
2023-01-06T17:53:25.258Z,7.4
2023-01-06T17:56:25.240Z,7.38
2023-01-06T17:59:25.361Z,7.36
2023-01-06T18:02:25.248Z,7.38
2023-01-06T18:05:25.254Z,7.41
2023-01-06T18:08:25.268Z,7.42
2023-01-06T18:11:25.256Z,7.37
2023-01-06T18:14:25.265Z,7.38
2023-01-06T18:17:25.392Z,7.38
2023-01-06T18:20:25.269Z,7.38
2023-01-06T18:23:25.276Z,7.38
2023-01-06T18:26:25.272Z,7.38
2023-01-06T18:29:25.277Z,7.39
2023-01-06T18:32:25.274Z,7.38
2023-01-06T18:35:25.401Z,7.37
2023-01-06T18:38:25.297Z,7.37
2023-01-06T18:41:25.283Z,7.32
2023-01-06T18:44:25.289Z,7.32
2023-01-06T18:47:25.301Z,7.31
2023-01-06T18:50:25.298Z,7.32
2023-01-06T18:53:25.434Z,7.35
2023-01-06T18:56:25.303Z,7.34
2023-01-06T18:59:25.326Z,7.29
2023-01-06T19:02:25.356Z,7.3
2023-01-06T19:05:25.352Z,7.3
2023-01-06T19:08:25.376Z,7.29
2023-01-06T19:11:25.500Z,7.23
2023-01-06T19:14:25.381Z,7.18
2023-01-06T19:17:25.386Z,7.2
2023-01-06T19:20:25.392Z,7.16
2023-01-06T19:23:25.411Z,7.18
2023-01-06T19:26:25.402Z,7.14
2023-01-06T19:29:25.537Z,7.17
2023-01-06T19:32:26.266Z,7.12
2023-01-06T19:35:25.412Z,7.14
2023-01-06T19:38:25.429Z,7.1
2023-01-06T19:41:25.431Z,7.05
2023-01-06T19:44:25.436Z,7.06
2023-01-06T19:47:25.458Z,7.03
2023-01-06T19:50:25.440Z,7
2023-01-06T19:53:25.452Z,7.01
2023-01-06T19:56:25.476Z,7.04
2023-01-06T19:59:25.467Z,7
2023-01-06T20:02:25.614Z,7
2023-01-06T20:05:25.586Z,7.01
2023-01-06T20:08:25.489Z,7.01
2023-01-06T20:11:25.472Z,6.97
2023-01-06T20:14:25.487Z,6.99
2023-01-06T20:17:25.491Z,6.98
2023-01-06T20:20:25.491Z,6.94
2023-01-06T20:23:25.638Z,6.95
2023-01-06T20:26:25.499Z,6.96
2023-01-06T20:29:25.499Z,6.92
2023-01-06T20:32:25.503Z,6.93
2023-01-06T20:35:25.502Z,6.94
2023-01-06T20:38:25.546Z,6.94
2023-01-06T20:41:25.635Z,6.94
2023-01-06T20:44:25.516Z,6.94
2023-01-06T20:47:25.520Z,6.94
2023-01-06T20:50:25.521Z,6.95
2023-01-06T20:53:25.532Z,6.96
2023-01-06T20:56:25.532Z,7.01
2023-01-06T20:59:25.664Z,7.06
2023-01-06T21:02:25.700Z,7.05
2023-01-06T21:05:25.534Z,7.09
2023-01-06T21:08:25.560Z,7.08
2023-01-06T21:11:25.545Z,7.08
2023-01-06T21:14:25.554Z,7.12
2023-01-06T21:17:25.671Z,7.11
2023-01-06T21:20:25.574Z,7.15
2023-01-06T21:23:25.588Z,7.19
2023-01-06T21:26:25.569Z,7.23
2023-01-06T21:29:25.576Z,7.24
2023-01-06T21:32:25.586Z,7.21
2023-01-06T21:35:25.715Z,7.19
2023-01-06T21:38:25.601Z,7.24
2023-01-06T21:41:25.596Z,7.27
2023-01-06T21:44:25.597Z,7.2
2023-01-06T21:47:25.603Z,7.2
2023-01-06T21:50:26.957Z,7.2
2023-01-06T21:53:25.754Z,7.2
2023-01-06T21:56:25.622Z,7.24
2023-01-06T21:59:25.623Z,7.23
2023-01-06T22:02:25.741Z,7.21
2023-01-06T22:05:25.667Z,7.21
2023-01-06T22:08:25.658Z,7.17
2023-01-06T22:11:25.776Z,7.18
2023-01-06T22:14:25.650Z,7.19
2023-01-06T22:17:25.651Z,7.19
2023-01-06T22:20:25.658Z,7.15
2023-01-06T22:23:25.676Z,7.17
2023-01-06T22:26:25.674Z,7.17
2023-01-06T22:29:25.807Z,7.12
2023-01-06T22:32:25.685Z,7.14
2023-01-06T22:35:25.687Z,7.15
2023-01-06T22:38:25.701Z,7.15
2023-01-06T22:41:25.695Z,7.1
2023-01-06T22:44:25.704Z,7.11
2023-01-06T22:47:25.839Z,7.07
2023-01-06T22:50:25.710Z,7.05
2023-01-06T22:53:25.724Z,7.07
2023-01-06T22:56:25.716Z,7.15
2023-01-06T22:59:25.722Z,7.21
2023-01-06T23:02:25.879Z,7.27
2023-01-06T23:05:25.766Z,7.31
2023-01-06T23:08:25.749Z,7.33
2023-01-06T23:11:25.736Z,7.37
2023-01-06T23:14:25.733Z,7.36
2023-01-06T23:17:25.745Z,7.34
2023-01-06T23:20:25.757Z,7.28
2023-01-06T23:23:25.880Z,7.23
2023-01-06T23:26:25.767Z,7.13
2023-01-06T23:29:25.768Z,7.04
2023-01-06T23:32:25.769Z,7.01
2023-01-06T23:35:25.781Z,6.94
2023-01-06T23:38:25.784Z,6.91
2023-01-06T23:41:25.905Z,6.88
2023-01-06T23:44:25.786Z,6.85
2023-01-06T23:47:25.795Z,6.83
2023-01-06T23:50:25.783Z,6.84
2023-01-06T23:53:25.818Z,6.82
2023-01-06T23:56:25.790Z,6.78
2023-01-06T23:59:25.921Z,6.79
